Time;durP1;ratioP1;P1;durP2;ratioP2;P2;SDS_P1;SDS_P2;PMS_P1;PMS_P2;Temp;Humidity;BMP_temperature;BMP_pressure;BME280_temperature;BME280_humidity;BME280_pressure;Samples;Min_cycle;Max_cycle;Signal;HPM_P1;HPM_P2
2022/03/02 00:01:16;;;;;;;;;;;8.40;99.90;;;;;;5080036;28;19938;-83
2022/03/02 00:03:44;;;;;;;;;;;8.20;99.90;;;;;;5060187;28;19912;-80
2022/03/02 00:06:13;;;;;;;;;;;7.00;99.90;;;;;;5053615;28;20350;-81
2022/03/02 00:08:45;;;;;;;;;;;7.70;99.90;;;;;;5052396;28;19925;-83
2022/03/02 00:11:13;;;;;;;;;;;7.30;99.90;;;;;;5056307;28;19930;-82
2022/03/02 00:13:41;;;;;;;;;;;8.20;99.90;;;;;;5078998;28;19928;-80
2022/03/02 00:16:10;;;;;;;;;;;8.20;99.90;;;;;;5087079;28;19943;-80
2022/03/02 00:18:39;;;;;;;;;;;8.10;99.90;;;;;;5070514;28;19931;-81
2022/03/02 00:21:10;;;;;;;;;;;8.30;99.90;;;;;;5070680;28;20634;-81
2022/03/02 00:23:39;;;;;;;;;;;8.20;99.90;;;;;;5053578;28;19931;-81
2022/03/02 00:26:07;;;;;;;;;;;8.30;99.90;;;;;;5089161;28;19925;-80
2022/03/02 00:28:37;;;;;;;;;;;8.30;99.90;;;;;;5068718;28;20039;-81
2022/03/02 00:31:05;;;;;;;;;;;8.20;99.90;;;;;;5051841;28;19929;-79
2022/03/02 00:33:33;;;;;;;;;;;9.10;99.90;;;;;;5049612;28;19925;-80
2022/03/02 00:36:01;;;;;;;;;;;8.30;99.90;;;;;;5049738;28;19927;-79
2022/03/02 00:38:30;;;;;;;;;;;8.30;99.90;;;;;;5066288;28;19935;-81
2022/03/02 00:40:58;;;;;;;;;;;8.20;99.90;;;;;;5063716;28;19956;-81
2022/03/02 00:43:27;;;;;;;;;;;8.20;99.90;;;;;;5102264;28;20305;-81
2022/03/02 00:45:57;;;;;;;;;;;8.20;99.90;;;;;;5092063;28;19925;-80
2022/03/02 00:48:26;;;;;;;;;;;8.10;99.90;;;;;;5073366;28;19938;-79
2022/03/02 00:50:55;;;;;;;;;;;8.20;99.90;;;;;;5085290;28;19928;-79
2022/03/02 00:53:23;;;;;;;;;;;8.20;99.90;;;;;;5086539;28;20393;-80
2022/03/02 00:55:51;;;;;;;;;;;8.10;99.90;;;;;;5070693;28;19928;-80
2022/03/02 00:58:19;;;;;;;;;;;8.10;99.90;;;;;;5085887;28;19934;-79
2022/03/02 01:00:48;;;;;;;;;;;8.10;99.90;;;;;;5068592;28;19930;-81
2022/03/02 01:03:16;;;;;;;;;;;8.10;99.90;;;;;;5052442;28;19928;-80
2022/03/02 01:05:45;;;;;;;;;;;8.10;99.90;;;;;;5068817;28;20420;-80
2022/03/02 01:08:15;;;;;;;;;;;8.10;99.90;;;;;;5052148;28;19928;-79
2022/03/02 01:10:43;;;;;;;;;;;8.20;99.90;;;;;;5072547;28;19931;-79
2022/03/02 01:13:11;;;;;;;;;;;8.10;99.90;;;;;;5050984;28;19928;-80
2022/03/02 01:15:40;;;;;;;;;;;8.10;99.90;;;;;;5068268;28;19935;-80
2022/03/02 01:18:08;;;;;;;;;;;8.00;99.90;;;;;;5084504;28;19928;-79
2022/03/02 01:20:38;;;;;;;;;;;8.00;99.90;;;;;;5067050;28;19925;-79
2022/03/02 01:23:06;;;;;;;;;;;8.30;99.90;;;;;;5051694;28;19931;-79
2022/03/02 01:25:34;;;;;;;;;;;8.10;99.90;;;;;;5068225;28;19935;-79
2022/03/02 01:28:02;;;;;;;;;;;8.20;99.90;;;;;;5099259;28;19952;-80
2022/03/02 01:30:31;;;;;;;;;;;7.90;99.90;;;;;;5088996;28;19935;-81
2022/03/02 01:33:00;;;;;;;;;;;7.90;99.90;;;;;;5105365;28;19930;-83
2022/03/02 01:35:28;;;;;;;;;;;8.00;99.90;;;;;;5089620;28;19924;-83
2022/03/02 01:37:55;;;;;;;;;;;8.00;99.90;;;;;;5072780;28;19924;-79
2022/03/02 01:40:24;;;;;;;;;;;7.90;99.90;;;;;;5104622;28;19931;-80
2022/03/02 01:42:52;;;;;;;;;;;8.00;99.90;;;;;;5107188;28;19924;-80
2022/03/02 01:45:21;;;;;;;;;;;7.90;99.90;;;;;;5105526;28;19927;-80
2022/03/02 01:47:49;;;;;;;;;;;7.80;99.90;;;;;;5106911;28;19927;-80
2022/03/02 01:50:18;;;;;;;;;;;7.90;99.90;;;;;;5108977;28;19913;-80
2022/03/02 01:52:46;;;;;;;;;;;7.80;99.90;;;;;;5074111;28;19938;-81
2022/03/02 01:55:14;;;;;;;;;;;7.80;99.90;;;;;;5090224;28;19934;-80
2022/03/02 01:57:43;;;;;;;;;;;7.80;99.90;;;;;;5096260;28;20458;-82
2022/03/02 02:00:14;;;;;;;;;;;7.70;99.90;;;;;;5089470;28;19924;-82
2022/03/02 02:02:43;;;;;;;;;;;7.70;99.90;;;;;;5106781;28;19930;-81
2022/03/02 02:05:15;;;;;;;;;;;7.70;99.90;;;;;;5086501;28;19920;-81
2022/03/02 02:07:49;;;;;;;;;;;7.70;99.90;;;;;;5084678;28;19924;-80
2022/03/02 02:10:17;;;;;;;;;;;7.70;99.90;;;;;;5066924;28;19932;-80
2022/03/02 02:12:44;;;;;;;;;;;7.70;99.90;;;;;;5083312;28;19935;-83
2022/03/02 02:15:13;;;;;;;;;;;7.60;99.90;;;;;;5083382;28;19932;-83
2022/03/02 02:17:41;;;;;;;;;;;7.60;99.90;;;;;;5065023;28;20455;-81
2022/03/02 02:20:11;;;;;;;;;;;7.60;99.90;;;;;;5080640;28;19928;-82
2022/03/02 02:22:39;;;;;;;;;;;7.50;99.90;;;;;;5064325;28;19931;-80
2022/03/02 02:25:07;;;;;;;;;;;7.50;99.90;;;;;;5048792;28;19934;-81
2022/03/02 02:27:35;;;;;;;;;;;7.60;99.90;;;;;;5101449;28;19928;-79
2022/03/02 02:30:07;;;;;;;;;;;7.50;99.90;;;;;;5102019;28;20032;-81
2022/03/02 02:32:37;;;;;;;;;;;7.50;99.90;;;;;;5064925;28;19933;-80
2022/03/02 02:35:06;;;;;;;;;;;7.50;99.90;;;;;;5082972;28;19925;-80
2022/03/02 02:37:35;;;;;;;;;;;7.50;99.90;;;;;;5064823;28;19928;-79
2022/03/02 02:40:06;;;;;;;;;;;7.50;99.90;;;;;;5081460;28;19935;-81
2022/03/02 02:42:34;;;;;;;;;;;7.60;99.90;;;;;;5101244;28;19935;-80
2022/03/02 02:45:03;;;;;;;;;;;8.60;99.90;;;;;;5101109;28;19924;-81
2022/03/02 02:47:32;;;;;;;;;;;9.10;99.90;;;;;;5085228;28;19939;-80
2022/03/02 02:50:00;;;;;;;;;;;7.40;99.90;;;;;;5086361;28;19928;-81
2022/03/02 02:52:36;;;;;;;;;;;7.40;99.90;;;;;;5085994;28;19924;-81
2022/03/02 02:55:08;;;;;;;;;;;7.40;99.90;;;;;;5104606;28;19924;-80
2022/03/02 02:57:36;;;;;;;;;;;7.40;99.90;;;;;;5049668;28;19935;-80
2022/03/02 03:00:07;;;;;;;;;;;7.40;99.90;;;;;;5082966;28;19928;-80
2022/03/02 03:02:37;;;;;;;;;;;7.50;99.90;;;;;;5049697;28;19938;-81
2022/03/02 03:05:09;;;;;;;;;;;7.40;99.90;;;;;;5039290;28;19928;-79
2022/03/02 03:07:38;;;;;;;;;;;7.40;99.90;;;;;;5069809;28;19927;-80
2022/03/02 03:10:06;;;;;;;;;;;7.40;99.90;;;;;;5100138;28;19924;-81
2022/03/02 03:12:35;;;;;;;;;;;7.50;99.90;;;;;;5082882;28;20006;-81
2022/03/02 03:15:05;;;;;;;;;;;7.40;99.90;;;;;;5066234;28;19935;-81
2022/03/02 03:17:33;;;;;;;;;;;7.50;99.90;;;;;;5066005;28;19925;-81
2022/03/02 03:20:03;;;;;;;;;;;8.00;99.90;;;;;;5085189;28;19928;-80
2022/03/02 03:22:31;;;;;;;;;;;7.50;99.90;;;;;;5069220;28;19928;-81
2022/03/02 03:24:59;;;;;;;;;;;7.40;99.90;;;;;;5067156;28;19935;-82
2022/03/02 03:27:28;;;;;;;;;;;7.40;99.90;;;;;;5052019;28;19924;-82
2022/03/02 03:29:55;;;;;;;;;;;7.50;99.90;;;;;;5069924;28;20618;-82
2022/03/02 03:32:26;;;;;;;;;;;6.50;99.90;;;;;;5089864;28;20364;-83
2022/03/02 03:34:54;;;;;;;;;;;7.60;99.90;;;;;;5074415;28;19925;-80
2022/03/02 03:37:22;;;;;;;;;;;7.50;99.90;;;;;;5093111;28;19932;-81
2022/03/02 03:39:50;;;;;;;;;;;7.50;99.90;;;;;;5094034;28;19912;-80
2022/03/02 03:42:19;;;;;;;;;;;7.50;99.90;;;;;;5072388;28;19931;-80
2022/03/02 03:44:47;;;;;;;;;;;7.50;99.90;;;;;;5069913;28;19938;-81
2022/03/02 03:47:15;;;;;;;;;;;7.40;99.90;;;;;;5069127;28;19928;-80
2022/03/02 03:49:44;;;;;;;;;;;7.50;99.90;;;;;;5069241;28;19924;-80
2022/03/02 03:52:12;;;;;;;;;;;7.40;99.90;;;;;;5051026;28;19931;-80
2022/03/02 03:54:40;;;;;;;;;;;7.60;99.90;;;;;;5052339;28;19935;-80
2022/03/02 03:57:10;;;;;;;;;;;7.40;99.90;;;;;;5063584;28;19935;-79
2022/03/02 03:59:39;;;;;;;;;;;7.40;99.90;;;;;;5051816;28;19924;-79
2022/03/02 04:02:06;;;;;;;;;;;7.50;99.90;;;;;;5103817;28;19924;-82
2022/03/02 04:04:35;;;;;;;;;;;6.50;99.90;;;;;;5086296;28;19924;-80
2022/03/02 04:07:03;;;;;;;;;;;7.40;99.90;;;;;;5068980;28;20323;-80
2022/03/02 04:09:31;;;;;;;;;;;7.40;99.90;;;;;;5052727;28;20362;-81
2022/03/02 04:12:00;;;;;;;;;;;7.50;99.90;;;;;;5087056;28;19924;-80
2022/03/02 04:14:28;;;;;;;;;;;7.40;99.90;;;;;;5087487;28;19938;-81
2022/03/02 04:16:56;;;;;;;;;;;7.50;99.90;;;;;;5107355;28;19924;-80
2022/03/02 04:19:24;;;;;;;;;;;7.40;99.90;;;;;;5073097;28;19924;-80
2022/03/02 04:21:53;;;;;;;;;;;7.50;99.90;;;;;;5090125;28;19930;-80
2022/03/02 04:24:21;;;;;;;;;;;7.60;99.90;;;;;;5089443;28;19927;-79
2022/03/02 04:26:49;;;;;;;;;;;7.50;99.90;;;;;;5089103;28;19935;-80
2022/03/02 04:29:17;;;;;;;;;;;7.40;99.90;;;;;;5088904;28;19946;-80
2022/03/02 04:31:48;;;;;;;;;;;7.60;99.90;;;;;;5105508;28;19924;-81
2022/03/02 04:34:16;;;;;;;;;;;7.40;99.90;;;;;;5091531;28;19924;-80
2022/03/02 04:36:44;;;;;;;;;;;7.60;99.90;;;;;;5089554;28;20297;-80
2022/03/02 04:39:12;;;;;;;;;;;7.50;99.90;;;;;;5089567;28;19939;-80
2022/03/02 04:41:41;;;;;;;;;;;7.50;99.90;;;;;;5072373;28;19924;-81
2022/03/02 04:44:12;;;;;;;;;;;7.40;99.90;;;;;;5052634;28;19928;-81
2022/03/02 04:46:40;;;;;;;;;;;7.50;99.90;;;;;;5058504;28;19931;-81
2022/03/02 04:49:13;;;;;;;;;;;7.50;99.90;;;;;;5072406;28;19934;-81
2022/03/02 04:51:41;;;;;;;;;;;7.40;99.90;;;;;;5089822;28;19951;-80
2022/03/02 04:55:05;;;;;;;;;;;7.50;99.90;;;;;;5107082;28;19935;-82
2022/03/02 04:56:58;;;;;;;;;;;7.50;99.90;;;;;;5070261;28;19924;-82
2022/03/02 04:59:27;;;;;;;;;;;7.50;99.90;;;;;;5106383;28;19934;-82
2022/03/02 05:01:56;;;;;;;;;;;7.90;99.90;;;;;;5068097;28;19928;-82
2022/03/02 05:04:26;;;;;;;;;;;7.40;99.90;;;;;;5080503;28;19931;-82
2022/03/02 05:06:56;;;;;;;;;;;7.50;99.90;;;;;;5107530;28;19924;-82
2022/03/02 05:09:29;;;;;;;;;;;7.50;99.90;;;;;;5086881;28;19935;-82
2022/03/02 05:11:58;;;;;;;;;;;7.60;99.90;;;;;;5080877;28;19924;-82
2022/03/02 05:14:29;;;;;;;;;;;7.40;99.90;;;;;;5070006;28;19925;-81
2022/03/02 05:16:57;;;;;;;;;;;7.50;99.90;;;;;;5052741;28;19929;-81
2022/03/02 05:19:26;;;;;;;;;;;7.30;99.90;;;;;;5086556;28;19928;-81
2022/03/02 05:21:55;;;;;;;;;;;6.60;99.90;;;;;;5100509;28;19931;-81
2022/03/02 05:24:24;;;;;;;;;;;7.40;99.90;;;;;;5070916;28;19931;-80
2022/03/02 05:26:52;;;;;;;;;;;7.40;99.90;;;;;;5085755;28;19928;-80
2022/03/02 05:29:21;;;;;;;;;;;7.40;99.90;;;;;;5075167;28;19928;-82
2022/03/02 05:31:51;;;;;;;;;;;6.10;99.90;;;;;;5068037;28;19928;-80
2022/03/02 05:34:19;;;;;;;;;;;7.70;99.90;;;;;;5092473;28;19928;-81
2022/03/02 05:36:47;;;;;;;;;;;6.50;99.90;;;;;;5087697;28;19934;-81
2022/03/02 05:39:17;;;;;;;;;;;8.50;99.90;;;;;;5088069;28;19928;-81
2022/03/02 05:41:48;;;;;;;;;;;7.40;99.90;;;;;;5074535;28;19929;-82
2022/03/02 05:44:18;;;;;;;;;;;7.40;99.90;;;;;;5085232;28;19924;-81
2022/03/02 05:46:48;;;;;;;;;;;7.30;99.90;;;;;;5049604;28;19936;-81
2022/03/02 05:49:17;;;;;;;;;;;7.50;99.90;;;;;;5065070;28;19939;-80
2022/03/02 05:51:45;;;;;;;;;;;7.50;99.90;;;;;;5045763;28;19929;-80
2022/03/02 05:54:13;;;;;;;;;;;7.30;99.90;;;;;;5063741;28;19925;-79
2022/03/02 05:56:41;;;;;;;;;;;7.40;99.90;;;;;;5033757;28;19925;-81
2022/03/02 05:59:12;;;;;;;;;;;7.40;99.90;;;;;;5047706;28;20404;-81
2022/03/02 06:01:44;;;;;;;;;;;7.60;99.90;;;;;;5064812;28;19934;-83
2022/03/02 06:04:17;;;;;;;;;;;7.60;99.90;;;;;;5049502;28;19934;-81
2022/03/02 06:06:46;;;;;;;;;;;7.30;99.90;;;;;;5047994;28;19928;-84
2022/03/02 06:09:14;;;;;;;;;;;7.30;99.90;;;;;;5057251;28;19928;-81
2022/03/02 06:11:43;;;;;;;;;;;7.40;99.90;;;;;;5053017;28;19925;-81
2022/03/02 06:14:12;;;;;;;;;;;7.30;99.90;;;;;;5082129;28;19932;-81
2022/03/02 06:16:43;;;;;;;;;;;7.30;99.90;;;;;;5082466;28;19924;-81
2022/03/02 06:19:12;;;;;;;;;;;7.40;99.90;;;;;;5084382;28;19924;-80
2022/03/02 06:21:43;;;;;;;;;;;7.40;99.90;;;;;;5081142;28;19935;-79
2022/03/02 06:24:13;;;;;;;;;;;7.30;99.90;;;;;;5087970;28;19924;-80
2022/03/02 06:26:42;;;;;;;;;;;7.40;99.90;;;;;;5039105;28;19925;-81
2022/03/02 06:29:13;;;;;;;;;;;7.30;99.90;;;;;;5065039;28;19924;-82
2022/03/02 06:31:42;;;;;;;;;;;7.30;99.90;;;;;;5076086;28;19935;-81
2022/03/02 06:34:10;;;;;;;;;;;9.10;99.90;;;;;;5046113;28;19925;-83
2022/03/02 06:36:41;;;;;;;;;;;7.30;99.90;;;;;;5046362;28;19929;-82
2022/03/02 06:39:10;;;;;;;;;;;7.30;99.90;;;;;;5063185;28;19928;-82
2022/03/02 06:41:57;;;;;;;;;;;7.30;99.90;;;;;;5065809;28;19948;-82
2022/03/02 06:44:37;;;;;;;;;;;7.20;99.90;;;;;;5079142;28;20201;-81
2022/03/02 06:47:09;;;;;;;;;;;7.30;99.90;;;;;;5029647;28;19933;-81
2022/03/02 06:49:38;;;;;;;;;;;7.20;99.90;;;;;;5042226;28;19925;-83
2022/03/02 06:52:09;;;;;;;;;;;7.20;99.90;;;;;;5080595;28;20443;-82
2022/03/02 06:54:39;;;;;;;;;;;7.30;99.90;;;;;;5032767;28;19951;-80
2022/03/02 06:57:09;;;;;;;;;;;7.20;99.90;;;;;;5086294;28;19928;-80
2022/03/02 06:59:42;;;;;;;;;;;8.80;99.90;;;;;;5079295;28;19947;-81
2022/03/02 07:02:12;;;;;;;;;;;7.30;99.90;;;;;;5084040;28;19928;-80
2022/03/02 07:04:41;;;;;;;;;;;7.30;99.90;;;;;;5043484;28;19935;-80
2022/03/02 07:07:11;;;;;;;;;;;7.30;99.90;;;;;;5067655;28;19928;-79
2022/03/02 07:09:40;;;;;;;;;;;8.90;99.90;;;;;;5062156;28;19924;-79
2022/03/02 07:12:08;;;;;;;;;;;7.40;99.90;;;;;;5065702;28;19928;-81
2022/03/02 07:14:40;;;;;;;;;;;7.30;99.90;;;;;;5074265;28;19928;-80
2022/03/02 07:17:10;;;;;;;;;;;7.40;99.90;;;;;;5085951;28;19928;-81
2022/03/02 07:19:42;;;;;;;;;;;7.40;99.90;;;;;;5072403;28;19931;-86
2022/03/02 07:22:11;;;;;;;;;;;7.70;99.90;;;;;;5106075;28;19928;-81
2022/03/02 07:24:45;;;;;;;;;;;7.60;99.90;;;;;;5088002;28;19924;-80
2022/03/02 07:27:16;;;;;;;;;;;7.40;99.90;;;;;;5071597;28;19928;-82
2022/03/02 07:29:44;;;;;;;;;;;7.40;99.90;;;;;;5080631;28;19928;-80
2022/03/02 07:32:15;;;;;;;;;;;7.50;99.90;;;;;;5103176;28;19937;-80
2022/03/02 07:34:45;;;;;;;;;;;7.50;99.90;;;;;;5096396;28;20126;-80
2022/03/02 07:37:13;;;;;;;;;;;7.70;99.90;;;;;;5103232;28;19924;-79
2022/03/02 07:39:45;;;;;;;;;;;7.60;99.90;;;;;;5084730;28;19932;-80
2022/03/02 07:42:13;;;;;;;;;;;7.50;99.90;;;;;;5104301;28;19931;-80
2022/03/02 07:44:42;;;;;;;;;;;7.40;99.90;;;;;;5068838;28;19931;-82
2022/03/02 07:47:10;;;;;;;;;;;7.50;99.90;;;;;;5100553;28;19924;-81
2022/03/02 07:49:41;;;;;;;;;;;7.50;99.90;;;;;;5082294;28;19928;-79
2022/03/02 07:52:10;;;;;;;;;;;7.50;99.90;;;;;;5069239;28;19930;-82
2022/03/02 07:54:39;;;;;;;;;;;7.50;99.90;;;;;;5085029;28;19931;-79
2022/03/02 07:57:08;;;;;;;;;;;7.50;99.90;;;;;;5104715;28;20172;-83
2022/03/02 07:59:38;;;;;;;;;;;6.90;99.90;;;;;;5105883;28;19939;-79
2022/03/02 08:02:07;;;;;;;;;;;7.60;99.90;;;;;;5070101;28;19928;-80
2022/03/02 08:04:36;;;;;;;;;;;7.40;99.90;;;;;;5068866;28;19932;-81
2022/03/02 08:07:05;;;;;;;;;;;7.40;99.90;;;;;;5069788;28;19924;-82
2022/03/02 08:09:34;;;;;;;;;;;7.40;99.90;;;;;;5071335;28;19924;-80
2022/03/02 08:12:04;;;;;;;;;;;7.40;99.90;;;;;;5068246;28;19935;-81
2022/03/02 08:14:34;;;;;;;;;;;7.40;99.90;;;;;;5052998;28;19924;-81
2022/03/02 08:17:03;;;;;;;;;;;7.40;99.90;;;;;;5062779;28;19925;-81
2022/03/02 08:19:31;;;;;;;;;;;7.40;99.90;;;;;;5071818;28;19938;-80
2022/03/02 08:22:03;;;;;;;;;;;7.30;99.90;;;;;;5085952;28;19931;-81
2022/03/02 08:24:32;;;;;;;;;;;7.40;99.90;;;;;;5087432;28;19931;-81
2022/03/02 08:27:01;;;;;;;;;;;7.40;99.90;;;;;;5069103;28;19932;-81
2022/03/02 08:29:30;;;;;;;;;;;7.40;99.90;;;;;;5066060;28;19931;-82
2022/03/02 08:31:59;;;;;;;;;;;7.30;99.90;;;;;;5068200;28;19932;-81
2022/03/02 08:34:29;;;;;;;;;;;7.40;99.90;;;;;;5085804;28;19924;-82
2022/03/02 08:36:57;;;;;;;;;;;7.40;99.90;;;;;;5050399;28;19925;-81
2022/03/02 08:39:26;;;;;;;;;;;7.40;99.90;;;;;;5033755;28;19939;-79
2022/03/02 08:41:55;;;;;;;;;;;7.30;99.90;;;;;;5076016;28;19924;-80
2022/03/02 08:44:23;;;;;;;;;;;7.40;99.90;;;;;;5066191;28;19924;-81
2022/03/02 08:46:52;;;;;;;;;;;7.30;99.90;;;;;;5084222;28;19924;-81
2022/03/02 08:49:20;;;;;;;;;;;7.30;99.90;;;;;;5056318;28;19928;-80
2022/03/02 08:51:49;;;;;;;;;;;7.30;99.90;;;;;;5064081;28;19931;-80
2022/03/02 08:54:19;;;;;;;;;;;7.30;99.90;;;;;;5042522;28;19925;-80
2022/03/02 08:56:49;;;;;;;;;;;7.30;99.90;;;;;;5057580;28;19925;-79
2022/03/02 08:59:19;;;;;;;;;;;7.20;99.90;;;;;;5071220;28;19939;-80
2022/03/02 09:01:51;;;;;;;;;;;7.30;99.90;;;;;;5052463;28;19931;-80
2022/03/02 09:04:20;;;;;;;;;;;7.30;99.90;;;;;;5048929;28;20225;-80
2022/03/02 09:06:49;;;;;;;;;;;7.40;99.90;;;;;;5083878;28;19932;-79
2022/03/02 09:09:17;;;;;;;;;;;7.30;99.90;;;;;;5062871;28;19932;-80
2022/03/02 09:11:46;;;;;;;;;;;7.30;99.90;;;;;;5060325;28;20200;-79
2022/03/02 09:14:16;;;;;;;;;;;7.30;99.90;;;;;;5042540;28;19972;-79
2022/03/02 09:16:45;;;;;;;;;;;9.10;99.90;;;;;;5062685;28;19925;-79
2022/03/02 09:19:14;;;;;;;;;;;7.40;99.90;;;;;;5064811;28;19925;-78
2022/03/02 09:21:43;;;;;;;;;;;7.40;99.90;;;;;;5065318;28;19932;-79
2022/03/02 09:24:12;;;;;;;;;;;7.50;99.90;;;;;;5059735;28;19925;-80
2022/03/02 09:26:40;;;;;;;;;;;7.50;99.90;;;;;;5041126;28;19929;-79
2022/03/02 09:29:09;;;;;;;;;;;7.50;99.90;;;;;;5073264;28;19932;-80
2022/03/02 09:31:37;;;;;;;;;;;7.50;99.90;;;;;;5072479;28;19929;-80
2022/03/02 09:34:08;;;;;;;;;;;7.50;99.90;;;;;;5064082;28;19928;-80
2022/03/02 09:36:38;;;;;;;;;;;8.10;99.90;;;;;;5048480;28;19932;-81
2022/03/02 09:39:07;;;;;;;;;;;7.70;99.90;;;;;;5049390;28;19932;-79
2022/03/02 09:41:41;;;;;;;;;;;6.40;99.90;;;;;;5066145;28;19932;-82
2022/03/02 09:44:11;;;;;;;;;;;7.90;99.90;;;;;;5062004;28;19936;-80
2022/03/02 09:46:39;;;;;;;;;;;7.70;99.90;;;;;;5063918;28;19928;-81
2022/03/02 09:49:07;;;;;;;;;;;6.50;99.90;;;;;;5067165;28;19930;-80
2022/03/02 09:51:37;;;;;;;;;;;7.80;99.90;;;;;;5071190;28;20576;-81
2022/03/02 09:54:08;;;;;;;;;;;7.70;99.90;;;;;;5070674;28;19921;-82
2022/03/02 09:56:37;;;;;;;;;;;7.80;99.90;;;;;;5069172;28;19943;-81
2022/03/02 09:59:06;;;;;;;;;;;8.60;99.90;;;;;;5048435;28;19946;-81
2022/03/02 10:01:39;;;;;;;;;;;7.70;99.90;;;;;;5064885;28;19928;-81
2022/03/02 10:04:13;;;;;;;;;;;7.70;99.90;;;;;;5083514;28;20110;-81
2022/03/02 10:06:42;;;;;;;;;;;7.70;99.90;;;;;;5057258;28;19925;-82
2022/03/02 10:09:12;;;;;;;;;;;7.90;99.90;;;;;;5065266;28;19936;-81
2022/03/02 10:11:43;;;;;;;;;;;7.80;99.90;;;;;;5080952;28;20447;-80
2022/03/02 10:14:13;;;;;;;;;;;7.90;99.90;;;;;;5062593;28;19932;-78
2022/03/02 10:16:43;;;;;;;;;;;7.90;99.90;;;;;;5070745;28;19924;-80
2022/03/02 10:19:33;;;;;;;;;;;7.90;99.90;;;;;;5067432;28;19924;-79
2022/03/02 10:22:06;;;;;;;;;;;7.30;99.90;;;;;;5077225;28;19928;-81
2022/03/02 10:24:43;;;;;;;;;;;8.00;99.90;;;;;;5094335;28;19932;-80
2022/03/02 10:27:22;;;;;;;;;;;8.10;99.90;;;;;;5083417;28;19928;-80
2022/03/02 10:30:00;;;;;;;;;;;8.10;99.90;;;;;;5062235;28;19928;-81
2022/03/02 10:32:33;;;;;;;;;;;8.10;99.90;;;;;;5064856;28;19924;-82
2022/03/02 10:35:09;;;;;;;;;;;8.10;99.90;;;;;;5080270;28;19934;-80
2022/03/02 10:37:39;;;;;;;;;;;8.10;99.90;;;;;;5081148;28;19939;-80
2022/03/02 10:40:11;;;;;;;;;;;8.10;99.90;;;;;;5095698;28;19931;-83
2022/03/02 10:42:56;;;;;;;;;;;8.10;99.90;;;;;;5046713;28;19924;-80
2022/03/02 10:45:25;;;;;;;;;;;8.20;99.90;;;;;;5097772;28;19932;-80
2022/03/02 10:48:14;;;;;;;;;;;9.70;99.90;;;;;;5084042;28;20033;-82
2022/03/02 10:50:43;;;;;;;;;;;7.60;99.90;;;;;;5080509;28;19924;-81
2022/03/02 10:53:15;;;;;;;;;;;8.20;99.90;;;;;;5063342;28;19939;-81
2022/03/02 10:55:45;;;;;;;;;;;8.20;99.90;;;;;;5078904;28;19928;-81
2022/03/02 10:58:14;;;;;;;;;;;8.10;99.90;;;;;;5099089;28;19925;-80
2022/03/02 11:00:43;;;;;;;;;;;8.00;99.90;;;;;;5080234;28;19928;-79
2022/03/02 11:03:13;;;;;;;;;;;8.10;99.90;;;;;;5099083;28;19939;-80
2022/03/02 11:05:41;;;;;;;;;;;8.10;99.90;;;;;;5081998;28;20295;-80
2022/03/02 11:08:09;;;;;;;;;;;8.10;99.90;;;;;;5081364;28;19928;-81
2022/03/02 11:10:37;;;;;;;;;;;8.10;99.90;;;;;;5084650;28;19928;-81
2022/03/02 11:13:15;;;;;;;;;;;8.20;99.90;;;;;;5102324;28;20397;-82
2022/03/02 11:15:43;;;;;;;;;;;8.40;99.90;;;;;;5065328;28;19931;-80
2022/03/02 11:18:16;;;;;;;;;;;8.10;99.90;;;;;;5084219;28;19924;-82
2022/03/02 11:20:59;;;;;;;;;;;8.10;99.90;;;;;;5066142;28;19924;-81
2022/03/02 11:23:30;;;;;;;;;;;8.20;99.90;;;;;;5078103;28;19932;-80
2022/03/02 11:26:04;;;;;;;;;;;8.10;99.90;;;;;;5064017;28;19932;-80
2022/03/02 11:28:34;;;;;;;;;;;8.40;99.90;;;;;;5098258;28;19931;-81
2022/03/02 11:31:04;;;;;;;;;;;8.30;99.90;;;;;;5095637;28;19924;-80
2022/03/02 11:33:32;;;;;;;;;;;9.70;99.90;;;;;;5096321;28;19928;-79
2022/03/02 11:36:11;;;;;;;;;;;8.30;99.90;;;;;;5099948;28;19924;-80
2022/03/02 11:38:41;;;;;;;;;;;9.70;99.90;;;;;;5054315;28;19913;-80
2022/03/02 11:41:11;;;;;;;;;;;8.40;99.90;;;;;;5083196;28;19924;-80
2022/03/02 11:43:39;;;;;;;;;;;8.60;99.90;;;;;;5086799;28;19943;-80
2022/03/02 11:46:08;;;;;;;;;;;8.60;99.90;;;;;;5085137;28;19933;-82
2022/03/02 11:48:39;;;;;;;;;;;8.80;99.90;;;;;;5084165;28;19924;-81
2022/03/02 11:51:10;;;;;;;;;;;8.60;99.90;;;;;;5077823;28;19928;-80
2022/03/02 11:53:59;;;;;;;;;;;8.70;99.90;;;;;;5067321;28;19931;-82
2022/03/02 11:56:28;;;;;;;;;;;8.90;99.90;;;;;;5098437;28;19943;-81
2022/03/02 11:58:59;;;;;;;;;;;8.70;99.90;;;;;;5066920;28;19929;-83
2022/03/02 12:01:53;;;;;;;;;;;8.80;99.90;;;;;;5083241;28;19924;-80
2022/03/02 12:04:32;;;;;;;;;;;8.70;99.90;;;;;;5102111;28;19939;-80
2022/03/02 12:07:02;;;;;;;;;;;8.70;99.90;;;;;;5083723;28;19934;-80
2022/03/02 12:09:32;;;;;;;;;;;8.70;99.90;;;;;;5067063;28;19943;-80
2022/03/02 12:12:19;;;;;;;;;;;7.40;99.90;;;;;;5083510;28;20492;-79
2022/03/02 12:14:49;;;;;;;;;;;8.80;99.90;;;;;;5066514;28;19939;-80
2022/03/02 12:17:21;;;;;;;;;;;8.70;99.90;;;;;;5084878;28;19928;-78
2022/03/02 12:19:56;;;;;;;;;;;8.80;99.90;;;;;;5098715;28;19931;-80
2022/03/02 12:22:38;;;;;;;;;;;8.80;99.90;;;;;;5102625;28;19923;-82
2022/03/02 12:25:08;;;;;;;;;;;8.90;99.90;;;;;;5099680;28;19938;-80
2022/03/02 12:27:36;;;;;;;;;;;8.80;99.90;;;;;;5085050;28;19932;-82
2022/03/02 12:30:07;;;;;;;;;;;9.00;99.90;;;;;;5069388;28;19924;-81
2022/03/02 12:32:36;;;;;;;;;;;9.60;99.90;;;;;;5085218;28;19932;-79
2022/03/02 12:35:06;;;;;;;;;;;8.90;99.90;;;;;;5066172;28;19943;-80
2022/03/02 12:37:35;;;;;;;;;;;8.90;99.90;;;;;;5101176;28;19944;-80
2022/03/02 12:40:09;;;;;;;;;;;9.00;99.90;;;;;;5102018;28;20393;-83
2022/03/02 12:42:41;;;;;;;;;;;9.20;99.90;;;;;;5085451;28;19928;-82
2022/03/02 12:45:13;;;;;;;;;;;9.10;99.90;;;;;;5084732;28;19928;-80
2022/03/02 12:47:42;;;;;;;;;;;9.10;99.90;;;;;;5085025;28;19939;-81
2022/03/02 12:50:12;;;;;;;;;;;10.50;99.90;;;;;;5066373;28;19938;-82
2022/03/02 12:52:41;;;;;;;;;;;9.20;99.90;;;;;;5081447;28;20313;-82
2022/03/02 12:55:10;;;;;;;;;;;9.20;99.90;;;;;;5083972;28;19934;-84
2022/03/02 12:57:40;;;;;;;;;;;9.00;99.90;;;;;;5086850;28;20010;-84
2022/03/02 13:00:16;;;;;;;;;;;9.40;99.90;;;;;;5085277;28;19924;-81
2022/03/02 13:02:47;;;;;;;;;;;9.50;99.90;;;;;;5101120;28;19931;-81
2022/03/02 13:05:24;;;;;;;;;;;9.70;99.90;;;;;;5084131;28;19935;-80
2022/03/02 13:08:12;;;;;;;;;;;9.70;99.90;;;;;;5085187;28;19924;-82
2022/03/02 13:10:43;;;;;;;;;;;9.70;99.90;;;;;;5084715;28;19920;-81
2022/03/02 13:13:12;;;;;;;;;;;9.90;99.90;;;;;;5080281;28;19932;-81
2022/03/02 13:15:41;;;;;;;;;;;9.80;99.90;;;;;;5060848;28;19933;-83
2022/03/02 13:18:12;;;;;;;;;;;10.00;99.90;;;;;;5031509;28;19929;-82
2022/03/02 13:20:41;;;;;;;;;;;9.90;99.90;;;;;;5084046;28;20384;-81
2022/03/02 13:23:12;;;;;;;;;;;9.90;99.90;;;;;;5065944;28;19932;-81
2022/03/02 13:25:55;;;;;;;;;;;10.00;99.90;;;;;;5081200;28;19925;-82
2022/03/02 13:28:24;;;;;;;;;;;9.90;99.90;;;;;;5057111;28;19924;-80
2022/03/02 13:31:05;;;;;;;;;;;9.90;99.90;;;;;;5063328;28;19929;-79
2022/03/02 13:33:52;;;;;;;;;;;9.90;99.90;;;;;;5072951;28;19928;-79
2022/03/02 13:36:45;;;;;;;;;;;9.90;99.90;;;;;;5050023;28;19940;-79
2022/03/02 13:39:20;;;;;;;;;;;9.90;99.90;;;;;;5040940;28;19925;-80
2022/03/02 13:41:52;;;;;;;;;;;10.00;99.90;;;;;;5076613;28;19948;-80
2022/03/02 13:44:40;;;;;;;;;;;10.20;99.90;;;;;;5063250;28;20088;-78
2022/03/02 13:47:12;;;;;;;;;;;10.20;99.90;;;;;;5078299;28;19924;-80
2022/03/02 13:49:50;;;;;;;;;;;10.00;99.90;;;;;;5044003;28;19930;-80
2022/03/02 13:52:42;;;;;;;;;;;10.30;99.90;;;;;;5047039;28;19928;-79
2022/03/02 13:55:10;;;;;;;;;;;10.30;99.90;;;;;;5063418;28;19925;-79
2022/03/02 13:58:19;;;;;;;;;;;10.40;99.90;;;;;;5043270;28;19929;-79
2022/03/02 14:00:48;;;;;;;;;;;10.40;99.90;;;;;;5079110;28;19929;-78
2022/03/02 14:03:28;;;;;;;;;;;10.50;99.90;;;;;;5048287;28;19931;-80
2022/03/02 14:05:56;;;;;;;;;;;10.50;99.90;;;;;;5044933;28;19939;-80
2022/03/02 14:08:25;;;;;;;;;;;10.50;99.90;;;;;;5030341;28;20536;-78
2022/03/02 14:10:54;;;;;;;;;;;10.60;99.90;;;;;;5069308;28;19935;-81
2022/03/02 14:13:31;;;;;;;;;;;10.50;99.90;;;;;;5064058;28;19935;-81
2022/03/02 14:16:04;;;;;;;;;;;9.70;99.90;;;;;;5047205;28;19929;-78
2022/03/02 14:18:33;;;;;;;;;;;10.60;99.90;;;;;;5060050;28;19936;-78
2022/03/02 14:21:08;;;;;;;;;;;10.30;99.90;;;;;;5062094;28;19932;-80
2022/03/02 14:23:47;;;;;;;;;;;10.80;99.90;;;;;;5066601;28;20027;-79
2022/03/02 14:26:16;;;;;;;;;;;10.90;99.90;;;;;;5080749;28;19940;-78
2022/03/02 14:28:45;;;;;;;;;;;10.90;99.90;;;;;;5047774;28;19935;-81
2022/03/02 14:31:13;;;;;;;;;;;10.90;99.90;;;;;;5063173;28;19928;-79
2022/03/02 14:33:44;;;;;;;;;;;11.00;99.90;;;;;;5045254;28;19935;-81
2022/03/02 14:36:16;;;;;;;;;;;11.00;99.90;;;;;;5066006;28;19932;-82
2022/03/02 14:38:45;;;;;;;;;;;10.70;99.90;;;;;;5066626;28;19924;-82
2022/03/02 14:41:26;;;;;;;;;;;10.70;99.90;;;;;;5083222;28;20243;-82
2022/03/02 14:43:54;;;;;;;;;;;10.40;99.90;;;;;;5050002;28;19925;-83
2022/03/02 14:46:22;;;;;;;;;;;10.30;99.90;;;;;;5069550;28;20137;-82
2022/03/02 14:48:59;;;;;;;;;;;10.20;99.90;;;;;;5060723;28;19931;-82